Airfield :
LOGIN :

Register | Disclaimer

   EN    FR    IT 

 










Legend :    VFR   Marginal VFR   IFR   Intensive IFR   Very Intensive IFR
Visi :
Ceiling :
>= 8 km
>= 3000ft
5 to 8 km
1000 to 3000 ft
1500m to 5 km
500 to 1000 ft
800 to 1500m
200 to 500 ft
< 800m
< 200 ft
Symbols :   Thunderstorms  Fog  Heavy snow  Heavy precipitations  Wind > 20 kt
SIGMETs :     Misc.  Thunderstorms  Icing  Turbulence  Mountain Waves  Volcanic Ashes






- Airport Elevation : 256 ft
- IATA code : CFR


LFRK - Caen

CURRENT METAR :
  • 201300Z AUTO 02008KT 340V050 9999 BKN022 BKN029 BKN052 08/03 Q1035 NOSIG

EXPIRED METARs :
  • 201230Z AUTO 01010KT 9999 BKN022 BKN028 08/03 Q1035 NOSIG
  • 201200Z AUTO 01010KT 340V040 9999 SCT023 SCT031 BKN038 07/03 Q1035 NOSIG
  • 201130Z AUTO 01010KT 9999 FEW021 SCT052 08/04 Q1035 NOSIG
  • 201100Z AUTO 01010KT 9999 FEW022 07/04 Q1035 NOSIG
  • 201030Z AUTO 36007KT 330V030 9999 FEW024 07/04 Q1035 NOSIG

TAF TAF LFRK
Valid from the 20 at 12:00 until the 20 at 21:00 UTC


201100Z 2012/2021 02010KT 9999 SCT020
Met : +33 2 31 26 68 11



MET'MAP, your aeronautical weather chart ! - Copyright ORBIFLY December 2007 - Disclaimer

ORBIFLY MET'MAP TEAM :

Programming & Development : Alexandra Zaïnal
Concept & original design : Baudouin d'Aumeries
Assistance for programming : Marc-Olivier Méhu
Technical & hardware support : Manuel Goepfert

Contact : metmap@orbifly.com




SOURCES & CREDITS :

   NOAA